Utah County RPA :: 3IDAHOFALLS

liberation: 2021-04-17  08:00     latitude: 43.441800     longitude: -112.113850 124 birds
# LOFT PRING MILES ARRIVAL SPEED ToWin
1 Sherwood Loft AU13-UCA-0368 239.1 2021-04-17 12:29:55.617 1559.002 00:00:00
2 Peery Loft AU19-UVI-0187 235.246 2021-04-17 12:25:35.495 1558.909 00:00:01
3 Peery Loft AU19-UCA-0901 235.246 2021-04-17 12:25:38.824 1558.583 00:00:04
4 Sherwood Loft AU20-NEBO-0268 239.1 2021-04-17 12:37:14.021 1517.914 00:07:18
5 Sherwood Loft AU20-NEBO-0648 239.1 2021-04-17 12:37:37.277 1515.794 00:07:42
6 Riley Allred AU20-UCA-153 231.209 2021-04-17 12:28:56.946 1513.029 00:07:56
7 Riley Allred AU20-UCA-157 231.209 2021-04-17 12:28:59.118 1512.825 00:07:58
8 Peery Loft AU19-UCA-0910 235.246 2021-04-17 12:34:13.669 1509.814 00:08:39
9 Peery Loft AU20-UCA-0038 235.246 2021-04-17 12:34:46.954 1506.766 00:09:12
10 Peery Loft AU19-UCA-0908 235.246 2021-04-17 12:34:52.206 1506.286 00:09:18
11 Peery Loft AU19-UCA-0615 235.246 2021-04-17 12:34:58.515 1505.710 00:09:24
12 Peery Loft AU19-UCA-0942 235.246 2021-04-17 12:35:17.358 1503.993 00:09:43
13 Peery Loft AU18-UCA-0522 235.246 2021-04-17 12:35:51.282 1500.910 00:10:17
14 Riley Allred AU20-UCA-107 231.209 2021-04-17 12:31:11.006 1500.563 00:10:10
15 Riley Allred AU20-UCA-139 231.209 2021-04-17 12:31:28.197 1498.979 00:10:27
16 Craig Allred AU20-NLI-2413 231.209 2021-04-17 12:31:35.163 1498.338 00:10:34
17 Riley Allred AU20-UCA-101 231.209 2021-04-17 12:31:35.437 1498.313 00:10:34
18 Sherwood Loft IF20-FOYS-2263 239.1 2021-04-17 12:41:11.357 1496.561 00:11:16
19 Dry Creek Lofts AU20-NEBO-340 237.223 2021-04-17 12:39:38.662 1493.014 00:11:50
20 Sherwood Loft AU20-NEBO-0278 239.1 2021-04-17 12:42:32.953 1489.357 00:12:37
21 Riley Allred AU20-UCA-136 231.209 2021-04-17 12:33:42.797 1486.694 00:12:42
22 Craig Allred AU20-UVI-361 231.209 2021-04-17 12:33:43.932 1486.591 00:12:43
23 Sherwood Loft AU19-AA-18420 239.1 2021-04-17 12:44:04.216 1481.383 00:14:09
24 Sherwood Loft AU19-AA-18442 239.1 2021-04-17 12:45:23.602 1474.515 00:15:28
25 Sherwood Loft AU20-UCA-0475 239.1 2021-04-17 12:45:26.231 1474.289 00:15:31
26 Riley Allred AU20-UCA-106 231.209 2021-04-17 12:36:35.742 1471.201 00:15:35
27 Craig Allred IF20-VDB-31 231.209 2021-04-17 12:36:38.696 1470.939 00:15:38
28 Riley Allred AU20-UCA-148 231.209 2021-04-17 12:36:39.458 1470.871 00:15:38
29 Craig Allred AU19-JEDD-34815 231.209 2021-04-17 12:36:44.782 1470.400 00:15:44
30 Sherwood Loft AU20-NEBO-0285 239.1 2021-04-17 12:46:28.605 1468.939 00:16:33
31 Riley Allred AU20-UCA-170 231.209 2021-04-17 12:37:12.969 1467.908 00:16:12
32 Peery Loft AU20-UCA-0041 235.246 2021-04-17 12:42:09.512 1467.378 00:16:35
33 Sherwood Loft AU20-E-71180 239.1 2021-04-17 12:47:16.217 1464.881 00:17:21
34 Peery Loft AU18-UCA-0497 235.246 2021-04-17 12:42:45.207 1464.290 00:17:11
35 Iron Will AU20-UCA-0222 234.865 2021-04-17 12:42:30.887 1463.156 00:17:22
36 Peery Loft AU16-UCA-0049 235.246 2021-04-17 12:42:58.451 1463.148 00:17:24
37 Iron Will AU18-AA-4201 234.865 2021-04-17 12:42:31.818 1463.075 00:17:23
38 Iron Will AU20-UCA-0277 234.865 2021-04-17 12:42:36.678 1462.656 00:17:28
39 Sherwood Loft AU20-NEBO-0643 239.1 2021-04-17 12:48:20.859 1459.408 00:18:25
40 Peery Loft AU20-UCA-0004 235.246 2021-04-17 12:44:28.569 1455.423 00:18:54
41 Peery Loft AU19-UVI-0300 235.246 2021-04-17 12:45:16.716 1451.329 00:19:42
42 Dry Creek Lofts AU20-NEBO-0332 237.223 2021-04-17 12:49:04.209 1444.331 00:21:16
43 Peery Loft AU20-UCA-0042 235.246 2021-04-17 12:46:43.056 1444.045 00:21:09
44 Riley Allred AU19-JEDD-34848 231.209 2021-04-17 12:41:58.308 1443.151 00:20:57
45 Riley Allred AU20-UCA-127 231.209 2021-04-17 12:42:15.871 1441.654 00:21:15
46 Sherwood Loft AU20-NEBO-0218 239.1 2021-04-17 12:52:26.497 1438.977 00:22:31
47 Sherwood Loft AU20-UCA-0413 239.1 2021-04-17 12:52:30.135 1438.679 00:22:35
48 Craig Allred AU20-HARM-2617 231.209 2021-04-17 12:42:57.946 1438.081 00:21:57
49 Sherwood Loft IF20-FOYS-2275 239.1 2021-04-17 12:53:32.313 1433.600 00:23:37
50 Sherwood Loft IF20-FOYS-2254 239.1 2021-04-17 12:53:35.809 1433.315 00:23:40
51 Dry Creek Lofts AU20-NEBO-301 237.223 2021-04-17 12:51:24.594 1432.734 00:23:36
52 Peery Loft AU20-UCA-0034 235.246 2021-04-17 12:51:07.340 1422.196 00:25:33
53 Dry Creek Lofts AU20-NEBO-0357 237.223 2021-04-17 12:53:49.918 1420.924 00:26:01
54 Peery Loft AU20-UCA-0007 235.246 2021-04-17 12:53:14.192 1411.942 00:27:40
55 Riley Allred AU20-UCA-151 231.209 2021-04-17 12:48:30.121 1410.485 00:27:29
56 Riley Allred AU19-UCA-959 231.209 2021-04-17 12:48:30.978 1410.415 00:27:30
57 Riley Allred AU20-UCA-132 231.209 2021-04-17 12:48:31.849 1410.344 00:27:31
58 Riley Allred AU20-UCA-156 231.209 2021-04-17 12:48:32.232 1410.313 00:27:31
59 Riley Allred AU19-JEDD-42112 231.209 2021-04-17 12:48:33.905 1410.177 00:27:33
60 Craig Allred AU19-MTZ-1321 231.209 2021-04-17 12:48:50.184 1408.852 00:27:49
61 Craig Allred AU20-HARM-1695 231.209 2021-04-17 12:49:02.280 1407.870 00:28:01
62 Riley Allred AU20-UCA-144 231.209 2021-04-17 12:49:03.453 1407.774 00:28:02
63 Craig Allred AU19-JEDD-34849 231.209 2021-04-17 12:49:06.457 1407.531 00:28:05
64 Craig Allred AU20-NLI-2419 231.209 2021-04-17 12:49:08.317 1407.380 00:28:07
65 Craig Allred AU20-NLI-2015 231.209 2021-04-17 12:49:27.414 1405.832 00:28:26
66 Iron Will AU20-UCA-0213 234.865 2021-04-17 12:54:47.940 1402.186 00:29:39
67 Iron Will AU20-UCA-0246 234.865 2021-04-17 12:54:54.002 1401.706 00:29:45
68 Iron Will AU20-UCA-0328 234.865 2021-04-17 12:55:00.374 1401.201 00:29:52
69 Iron Will AU20-UCA-0260 234.865 2021-04-17 12:55:17.530 1399.845 00:30:09
70 Riley Allred AU20-UCA-119 231.209 2021-04-17 12:53:57.210 1384.327 00:32:56
71 Craig Allred AU20-UVI-359 231.209 2021-04-17 12:54:01.578 1383.984 00:33:00
72 Craig Allred AU20-NLI-2417 231.209 2021-04-17 12:55:46.668 1375.789 00:34:46
73 Dry Creek Lofts AU20-NEBO-327 237.223 2021-04-17 13:07:01.953 1359.833 00:39:13
74 Peery Loft AU20-UCA-0019 235.246 2021-04-17 13:05:16.568 1356.258 00:39:42
75 Peery Loft AU19-UCA-0943 235.246 2021-04-17 13:05:18.633 1356.105 00:39:44
76 Craig Allred IF20-VDB-25 231.209 2021-04-17 13:02:19.230 1346.015 00:41:18
77 Iron Will AU20-UCA-0266 234.865 2021-04-17 13:07:29.603 1344.299 00:42:21
78 Iron Will AU20-UCA-0274 234.865 2021-04-17 13:10:17.458 1332.179 00:45:09
79 Iron Will AU19-WGS-2597 234.865 2021-04-17 13:10:18.757 1332.086 00:45:10
80 Sherwood Loft AU18-UCA-0634 239.1 2021-04-17 13:16:02.542 1331.520 00:46:07
81 Riley Allred AU19-WFA-1368 231.209 2021-04-17 13:07:05.604 1325.095 00:46:05
82 Craig Allred IF20-VDB-0055 231.209 2021-04-17 13:07:11.346 1324.682 00:46:10
83 Dry Creek Lofts AU-20-NEBO-323 237.223 2021-04-17 13:15:34.136 1323.048 00:47:46
84 Sherwood Loft AU18-UCA-0686 239.1 2021-04-17 13:22:55.465 1303.143 00:53:00
85 Sherwood Loft AU20-NEBO-0255 239.1 2021-04-17 13:22:56.241 1303.091 00:53:01
86 Craig Allred IF20-VDB-0060 231.209 2021-04-17 13:15:14.645 1290.834 00:54:14
87 Peery Loft AU19-UCA-0623 235.246 2021-04-17 13:24:10.957 1277.160 00:58:36
88 Sherwood Loft IF20-FOYS-2269 239.1 2021-04-17 13:32:09.044 1266.945 01:02:13
89 Sherwood Loft AU20-UCA-0409 239.1 2021-04-17 13:32:11.375 1266.797 01:02:16
90 Sherwood Loft AU20-NEBO-0279 239.1 2021-04-17 13:34:19.040 1258.735 01:04:23
91 Riley Allred AU20-UCA-161 231.209 2021-04-17 13:25:15.495 1251.091 01:04:14
92 Craig Allred AU20-HARM-1689 231.209 2021-04-17 13:40:53.480 1193.717 01:19:52
93 Dry Creek Lofts AU20-NEBO-349 237.223 2021-04-17 13:56:26.477 1171.337 01:28:38
94 Iron Will AU20-UCA-0375 234.865 2021-04-17 14:09:19.517 1119.239 01:44:11
95 Riley Allred AU20-UCA-116 231.209 2021-04-17 14:07:03.907 1108.598 01:46:03
96 Peery Loft AU20-UCA-0003 235.246 2021-04-17 14:16:57.188 1098.368 01:51:23
97 Iron Will AU20-UCA-0245 234.865 2021-04-17 14:21:08.427 1084.543 01:56:00
98 Peery Loft AU18-UCA-0498 235.246 2021-04-17 14:27:38.335 1068.090 02:02:04
99 Sherwood Loft AU18-UCA-0681 239.1 2021-04-17 14:41:52.072 1047.152 02:11:56
100 Craig Allred AU20-NLI-2008 231.209 2021-04-17 14:52:40.589 986.070 02:31:39
101 Riley Allred AU19-UCA-940 231.209 2021-04-17 15:12:47.340 940.245 02:51:46
102 Riley Allred AU19-JEDD-34842 231.209 2021-04-17 15:34:27.655 895.408 03:13:27
103 Craig Allred AU20-UVI-366 231.209 2021-04-17 15:36:25.238 891.563 03:15:24
104 Riley Allred AU19-JEDD-42113 231.209 2021-04-17 16:25:26.558 805.092 04:04:25
105 Riley Allred AU20-UCA-102 231.209 2021-04-17 16:50:57.804 766.395 04:29:57
106 Riley Allred AU20-UCA-166 231.209 2021-04-17 17:58:57.257 679.397 05:37:56
Craig Allred AU19-JEDD-34811 0 0000-00-00 00:00:00.000 0.000 00:00:00
Craig Allred AU20-NLI-2503 0 0000-00-00 00:00:00.000 0.000 00:00:00
Craig Allred AU20-UVI-303 0 0000-00-00 00:00:00.000 0.000 00:00:00
Craig Allred AU20-UVI-352 0 0000-00-00 00:00:00.000 0.000 00:00:00
Dry Creek Lofts AU20-NEBO-311 0 0000-00-00 00:00:00.000 0.000 00:00:00
Iron Will AU20-UCA-0204 0 0000-00-00 00:00:00.000 0.000 00:00:00
Iron Will AU20-UCA-0261 0 0000-00-00 00:00:00.000 0.000 00:00:00
Iron Will AU20-UCA-0290 0 0000-00-00 00:00:00.000 0.000 00:00:00
Peery Loft AU20-UCA-0067 0 0000-00-00 00:00:00.000 0.000 00:00:00
Riley Allred AU20-UCA-147 0 0000-00-00 00:00:00.000 0.000 00:00:00
Sherwood Loft AU19-JEDD-26375 0 0000-00-00 00:00:00.000 0.000 00:00:00
Sherwood Loft AU20-NEBO-0254 0 0000-00-00 00:00:00.000 0.000 00:00:00
Sherwood Loft AU20-UCA-0469 0 0000-00-00 00:00:00.000 0.000 00:00:00
Sherwood Loft IF20-FOYS-2230 0 0000-00-00 00:00:00.000 0.000 00:00:00
Sherwood Loft IF20-FOYS-2244 0 0000-00-00 00:00:00.000 0.000 00:00:00
Sherwood Loft IF20-FOYS-2259 0 0000-00-00 00:00:00.000 0.000 00:00:00
Sherwood Loft IF20-FOYS-2270 0 0000-00-00 00:00:00.000 0.000 00:00:00
Sherwood Loft IF20-FOYS-2276 0 0000-00-00 00:00:00.000 0.000 00:00:00